Costa Fascinosa — ICPO — position and weather

sailwx.info

Track history (hours):
 
Tides and Currents Weather Stations Pressure Air Temp Water Temp Dewpoint Dewpoint Depression Visibility Wind Speed Wind Dir Waves Ship Positions

Costa Fascinosa

Last reported at 2017-Aug-24 01:00 UTC. Time now 2017-Aug-24 01:10 UTC.
Position N 38°47' E 003°37'.

Length 291 m; draft 8.3 m.

Type: Passenger vessel. MMSI: 247313500.

Date/timePositionNaut miles runAvg speedWind from/ knotsBaromVisibWave heightAir tempDewpointWater temp
2017-Aug-24 01:00N 38°47' E 003°37'918.4
2017-Aug-24 00:30N 38°46' E 003°49'918.3
2017-Aug-24 00:00N 38°46' E 004°00'918.3
2017-Aug-23 23:30N 38°45' E 004°12'918.3
2017-Aug-23 23:00N 38°45' E 004°24'918.4
2017-Aug-23 22:30N 38°44' E 004°36'918.5
2017-Aug-23 22:00N 38°43' E 004°47'918.5
2017-Aug-23 21:30N 38°43' E 004°59'918.5
2017-Aug-23 21:00N 38°42' E 005°11'1118.6
2017-Aug-23 20:25N 38°42' E 005°25'1318.9
2017-Aug-23 19:42N 38°41' E 005°42'2718.8
2017-Aug-23 18:15N 38°39' E 006°17'418.5
2017-Aug-23 18:00N 38°39' E 006°23'1518.7
2017-Aug-23 17:13N 38°38' E 006°42'418.8
2017-Aug-23 17:00N 38°37' E 006°47'2414.6
2017-Aug-23 15:23N 38°36' E 007°17'713.3
2017-Aug-23 14:53N 38°36' E 007°26'812.6
2017-Aug-23 14:17N 38°35' E 007°35'2012.4
2017-Aug-23 12:38N 38°34' E 008°01'1512.3
2017-Aug-23 11:26N 38°33' E 008°20'612.8
2017-Aug-23 10:58N 38°32' E 008°28'8814.9
2017-Aug-23 05:03N 38°26' E 010°20'312.7
2017-Aug-23 04:48N 38°26' E 010°24'10212.6
2017-Aug-22 20:42N 38°20' E 012°34'212.1
2017-Aug-22 20:30N 38°19' E 012°37'612.2
2017-Aug-22 20:00N 38°19' E 012°45'612.0
2017-Aug-22 19:30N 38°19' E 012°52'612.0
2017-Aug-22 19:00N 38°18' E 012°60'611.9
2017-Aug-22 18:30N 38°18' E 013°07'611.7
2017-Aug-22 18:00N 38°17' E 013°15'611.5
2017-Aug-22 17:30N 38°17' E 013°22'611.1
2017-Aug-22 17:00N 38°12' E 013°25'5 9.6
2017-Aug-22 16:30N 38°07' E 013°23'1 2.5
2017-Aug-22 15:58N 38°08' E 013°22'0 0.0
2017-Aug-22 15:28N 38°08' E 013°22'0 0.0
2017-Aug-22 14:54N 38°08' E 013°22'0 0.0
2017-Aug-22 14:30N 38°08' E 013°22'0 0.0
2017-Aug-22 14:00N 38°08' E 013°22'0 0.0
2017-Aug-22 13:29N 38°08' E 013°22'0 0.0
2017-Aug-22 12:59N 38°08' E 013°22'0 0.0
2017-Aug-22 12:29N 38°08' E 013°22'0 0.0
2017-Aug-22 11:58N 38°08' E 013°22'0 0.0
2017-Aug-22 11:28N 38°08' E 013°22'0 0.0
2017-Aug-22 10:58N 38°08' E 013°22'0 0.0
2017-Aug-22 10:28N 38°08' E 013°22'0 0.0
2017-Aug-22 09:58N 38°08' E 013°22'0 0.0
2017-Aug-22 09:28N 38°08' E 013°22'0 0.0
2017-Aug-22 08:58N 38°08' E 013°22'0 0.0
2017-Aug-22 08:29N 38°08' E 013°22'0 0.0
2017-Aug-22 08:00N 38°08' E 013°22'0 0.0
2017-Aug-22 07:30N 38°08' E 013°22'0 0.0
2017-Aug-22 07:00N 38°08' E 013°22'0 0.1
2017-Aug-22 06:30N 38°08' E 013°22'3 5.1
2017-Aug-22 06:00N 38°09' E 013°25'917.8
2017-Aug-22 05:30N 38°18' E 013°28'918.5
2017-Aug-22 05:00N 38°27' E 013°30'918.5
2017-Aug-22 04:30N 38°36' E 013°33'918.4
2017-Aug-22 03:59N 38°45' E 013°36'11013.5
2017-Aug-21 19:48N 40°32' E 014°08'413.0
2017-Aug-21 19:31N 40°36' E 014°09'713.1
2017-Aug-21 19:00N 40°42' E 014°13'612.4
2017-Aug-21 18:30N 40°48' E 014°16'3 0.3
2017-Aug-21 10:57N 40°50' E 014°16'3 6.0
2017-Aug-21 10:28N 40°48' E 014°17'613.0
2017-Aug-21 10:00N 40°43' E 014°13'917.4
2017-Aug-21 09:30N 40°38' E 014°04'917.8
2017-Aug-21 09:00N 40°38' E 013°52'21519.1
2017-Aug-20 21:46N 42°32' E 009°48'621.4
2017-Aug-20 21:30N 42°38' E 009°46'1121.4
2017-Aug-20 21:00N 42°48' E 009°41'1020.9
2017-Aug-20 20:30N 42°58' E 009°36'1020.5
2017-Aug-20 20:00N 43°07' E 009°31'1020.6
2017-Aug-20 19:30N 43°16' E 009°24'1020.6
2017-Aug-20 19:00N 43°25' E 009°16'1020.2
2017-Aug-20 18:30N 43°34' E 009°09'1020.6
2017-Aug-20 18:00N 43°42' E 009°02'1020.6
2017-Aug-20 17:30N 43°51' E 008°55'1020.4
2017-Aug-20 17:00N 43°60' E 008°47'1020.2
2017-Aug-20 16:30N 44°09' E 008°40'1019.3
2017-Aug-20 16:00N 44°17' E 008°33'3 6.4
2017-Aug-20 15:31N 44°19' E 008°29'0 0.1
2017-Aug-20 14:58N 44°19' E 008°29'0 0.0
2017-Aug-20 14:25N 44°19' E 008°29'0 0.0
2017-Aug-20 14:00N 44°19' E 008°29'0 0.0
2017-Aug-20 13:29N 44°19' E 008°29'0 0.0
2017-Aug-20 13:00N 44°19' E 008°29'0 0.0
2017-Aug-20 12:28N 44°19' E 008°29'0 0.0
2017-Aug-20 11:58N 44°19' E 008°29'0 0.0
2017-Aug-20 11:28N 44°19' E 008°29'0 0.0
2017-Aug-20 10:58N 44°19' E 008°29'0 0.0
2017-Aug-20 10:28N 44°19' E 008°29'0 0.0
2017-Aug-20 09:58N 44°19' E 008°29'0 0.0
2017-Aug-20 09:31N 44°19' E 008°29'0 0.0
2017-Aug-20 09:01N 44°19' E 008°29'0 0.0
2017-Aug-20 08:31N 44°19' E 008°29'0 0.0
2017-Aug-20 08:00N 44°19' E 008°29'0 0.0
2017-Aug-20 07:30N 44°19' E 008°29'0 0.0
2017-Aug-20 06:56N 44°19' E 008°29'0 0.0
2017-Aug-20 06:29N 44°19' E 008°29'0 0.1
2017-Aug-20 06:00N 44°19' E 008°29'3 5.3
2017-Aug-20 05:31N 44°17' E 008°32'1019.4
2017-Aug-20 05:00N 44°08' E 008°27'1020.3
2017-Aug-20 04:30N 43°59' E 008°19'1120.2
2017-Aug-20 03:59N 43°50' E 008°12'919.6
2017-Aug-20 03:30N 43°44' E 008°03'1019.9
2017-Aug-20 03:00N 43°38' E 007°51'1020.0
2017-Aug-20 02:31N 43°32' E 007°40'1020.1
2017-Aug-20 02:01N 43°27' E 007°29'1020.4
2017-Aug-20 01:31N 43°21' E 007°17'1020.3
2017-Aug-20 01:00N 43°15' E 007°06'6319.9
2017-Aug-19 21:51N 42°42' E 005°53'1420.6
2017-Aug-19 21:12N 42°35' E 005°37'420.7
2017-Aug-19 21:00N 42°34' E 005°32'1020.6
2017-Aug-19 20:30N 42°29' E 005°19'1020.6
2017-Aug-19 20:01N 42°24' E 005°07'1020.5
2017-Aug-19 19:30N 42°19' E 004°55'1020.4
2017-Aug-19 19:00N 42°14' E 004°43'1121.0
2017-Aug-19 18:30N 42°09' E 004°30'1121.2
2017-Aug-19 18:00N 42°04' E 004°18'1121.1
2017-Aug-19 17:30N 41°59' E 004°05'1020.4
2017-Aug-19 17:00N 41°54' E 003°53'1019.5
2017-Aug-19 16:30N 41°49' E 003°42'1019.7
2017-Aug-19 16:00N 41°45' E 003°30'6619.7
2017-Aug-19 12:41N 41°17' E 002°11'211.4
2017-Aug-19 12:30N 41°19' E 002°10'2 3.8
2017-Aug-19 12:00N 41°21' E 002°10'0 0.0
2017-Aug-19 11:25N 41°21' E 002°10'0 0.0
2017-Aug-19 11:00N 41°21' E 002°10'0 0.0
2017-Aug-19 10:30N 41°21' E 002°10'0 0.0
2017-Aug-19 08:48N 41°21' E 002°10'0 0.0
2017-Aug-19 08:24N 41°21' E 002°10'0 0.0
2017-Aug-19 08:00N 41°21' E 002°10'0 0.0
2017-Aug-19 07:12N 41°21' E 002°10'0 0.0
2017-Aug-19 06:54N 41°21' E 002°10'0 0.0
2017-Aug-19 05:16N 41°21' E 002°10'3 4.9
2017-Aug-19 04:43N 41°18' E 002°10'510.3
2017-Aug-19 04:12N 41°13' E 002°11'211.7
2017-Aug-19 04:00N 41°11' E 002°11'611.7
2017-Aug-19 03:30N 41°05' E 002°11'510.1
2017-Aug-19 03:00N 40°60' E 002°11'4 8.7
2017-Aug-19 02:30N 40°56' E 002°12'611.9
2017-Aug-19 02:00N 40°50' E 002°12'612.0
2017-Aug-19 01:30N 40°44' E 002°12'611.8
2017-Aug-19 01:00N 40°38' E 002°13'611.7
2017-Aug-19 00:30N 40°32' E 002°14'611.5
2017-Aug-19 00:00N 40°26' E 002°12'611.7
2017-Aug-18 23:30N 40°21' E 002°13'611.8
2017-Aug-18 23:00N 40°15' E 002°14'612.0
2017-Aug-18 22:30N 40°09' E 002°14'611.8
2017-Aug-18 22:00N 40°03' E 002°14'611.6
2017-Aug-18 21:30N 39°57' E 002°14'611.4
2017-Aug-18 21:00N 39°51' E 002°14'611.4
2017-Aug-18 20:29N 39°45' E 002°14'611.6
2017-Aug-18 19:59N 39°40' E 002°14'511.5
2017-Aug-18 19:30N 39°34' E 002°14'511.0
2017-Aug-18 19:00N 39°30' E 002°18'611.9
2017-Aug-18 18:30N 39°26' E 002°25'611.5
2017-Aug-18 18:00N 39°25' E 002°32'611.1
2017-Aug-18 17:30N 39°29' E 002°37'4 8.5
2017-Aug-18 17:00N 39°33' E 002°38'0 0.5
2017-Aug-18 16:29N 39°33' E 002°38'0 0.0
2017-Aug-18 15:59N 39°33' E 002°38'0 0.0
2017-Aug-18 15:29N 39°33' E 002°38'0 0.0
2017-Aug-18 14:59N 39°33' E 002°38'0 0.0
2017-Aug-18 14:29N 39°33' E 002°38'0 0.0
2017-Aug-18 13:29N 39°33' E 002°38'0 0.0
2017-Aug-18 12:59N 39°33' E 002°38'0 0.0
2017-Aug-18 12:29N 39°33' E 002°38'0 0.0
2017-Aug-18 11:59N 39°33' E 002°38'0 0.0
2017-Aug-18 11:26N 39°33' E 002°38'0 0.0
2017-Aug-18 10:59N 39°33' E 002°38'0 0.0
2017-Aug-18 10:29N 39°33' E 002°38'0 0.0
2017-Aug-18 09:59N 39°33' E 002°38'0 0.0
2017-Aug-18 09:29N 39°33' E 002°38'0 0.0
2017-Aug-18 08:59N 39°33' E 002°38'0 0.0
2017-Aug-18 08:29N 39°33' E 002°38'0 0.0
2017-Aug-18 07:59N 39°33' E 002°38'0 0.0
2017-Aug-18 07:26N 39°33' E 002°38'0 0.0
2017-Aug-18 06:59N 39°33' E 002°38'2 3.3
2017-Aug-18 06:30N 39°32' E 002°39'510.5
2017-Aug-18 06:00N 39°27' E 002°35'611.3
2017-Aug-18 05:30N 39°22' E 002°31'611.5
2017-Aug-18 05:00N 39°17' E 002°27'5 9.7
2017-Aug-18 04:30N 39°13' E 002°25'510.8
2017-Aug-18 04:00N 39°10' E 002°19'611.3
2017-Aug-18 03:30N 39°07' E 002°13'611.2
2017-Aug-18 03:00N 39°05' E 002°07'611.2
2017-Aug-18 02:30N 39°02' E 002°00'611.4
2017-Aug-18 02:00N 38°59' E 001°54'611.3
2017-Aug-18 01:30N 38°57' E 001°47'611.2
2017-Aug-18 01:00N 38°56' E 001°40'611.3
2017-Aug-18 00:30N 38°54' E 001°33'5 9.9
2017-Aug-18 00:00N 38°54' E 001°27'0 0.7
2017-Aug-17 23:30N 38°54' E 001°27'0 0.0
2017-Aug-17 23:00N 38°54' E 001°27'0 0.0
2017-Aug-17 22:27N 38°54' E 001°27'0 0.0
2017-Aug-17 21:57N 38°54' E 001°27'0 0.0
2017-Aug-17 21:27N 38°54' E 001°27'0 0.0
2017-Aug-17 21:00N 38°54' E 001°27'0 0.0
2017-Aug-17 20:30N 38°54' E 001°27'0 0.0
2017-Aug-17 20:00N 38°54' E 001°27'0 0.0
2017-Aug-17 19:27N 38°54' E 001°27'0 0.0
2017-Aug-17 19:00N 38°54' E 001°27'0 0.0
2017-Aug-17 18:27N 38°54' E 001°27'0 0.0
2017-Aug-17 17:57N 38°54' E 001°27'0 0.0
2017-Aug-17 17:30N 38°54' E 001°27'0 0.0
2017-Aug-17 17:00N 38°54' E 001°27'0 0.0
2017-Aug-17 16:30N 38°54' E 001°27'0 0.0
2017-Aug-17 16:00N 38°54' E 001°27'0 0.0
2017-Aug-17 15:26N 38°54' E 001°27'0 0.0
2017-Aug-17 14:53N 38°54' E 001°27'0 0.0
2017-Aug-17 14:17N 38°54' E 001°27'0 0.0
2017-Aug-17 13:59N 38°54' E 001°27'0 0.0
2017-Aug-17 13:29N 38°54' E 001°27'0 0.0
2017-Aug-17 12:56N 38°54' E 001°27'0 0.0
2017-Aug-17 12:29N 38°54' E 001°27'0 0.0
2017-Aug-17 11:59N 38°54' E 001°27'0 0.0
2017-Aug-17 11:29N 38°54' E 001°27'0 0.0
2017-Aug-17 10:58N 38°54' E 001°27'0 0.0
2017-Aug-17 10:28N 38°54' E 001°27'0 0.0
2017-Aug-17 09:58N 38°54' E 001°27'0 0.0
2017-Aug-17 09:28N 38°54' E 001°27'0 0.0
2017-Aug-17 08:58N 38°54' E 001°27'0 0.0
2017-Aug-17 08:22N 38°54' E 001°27'0 0.0
2017-Aug-17 07:58N 38°54' E 001°27'0 0.0
2017-Aug-17 07:28N 38°54' E 001°27'0 0.0
2017-Aug-17 06:58N 38°54' E 001°27'1 2.9
2017-Aug-17 06:30N 38°54' E 001°29'918.0
2017-Aug-17 06:00N 38°53' E 001°40'917.5
2017-Aug-17 05:30N 38°52' E 001°51'612.8
2017-Aug-17 05:00N 38°52' E 001°59'712.8
2017-Aug-17 04:30N 38°51' E 002°08'816.7
2017-Aug-17 04:00N 38°51' E 002°19'1019.4
2017-Aug-17 03:30N 38°50' E 002°31'1019.4
2017-Aug-17 03:00N 38°50' E 002°43'1019.1
2017-Aug-17 02:31N 38°49' E 002°55'1018.9
2017-Aug-17 02:00N 38°49' E 003°08'918.7
2017-Aug-17 01:31N 38°48' E 003°19'918.7
2017-Aug-17 01:00N 38°47' E 003°31'918.6
2017-Aug-17 00:30N 38°47' E 003°43'918.5
2017-Aug-17 00:00N 38°46' E 003°55'918.4
2017-Aug-16 23:30N 38°46' E 004°07'918.4
2017-Aug-16 23:00N 38°45' E 004°19'918.5
2017-Aug-16 22:30N 38°44' E 004°31'918.5
2017-Aug-16 22:00N 38°44' E 004°43'918.4
2017-Aug-16 21:31N 38°43' E 004°54'1218.5
2017-Aug-16 20:51N 38°42' E 005°10'1118.5
2017-Aug-16 20:16N 38°41' E 005°24'518.6
2017-Aug-16 20:00N 38°41' E 005°30'1018.6
2017-Aug-16 19:30N 38°41' E 005°42'918.9
2017-Aug-16 19:00N 38°40' E 005°54'919.1
2017-Aug-16 18:31N 38°39' E 006°06'918.8
2017-Aug-16 18:01N 38°39' E 006°18'918.6
2017-Aug-16 17:31N 38°38' E 006°30'1818.2
2017-Aug-16 16:31N 38°37' E 006°53'015.3
2017-Aug-16 16:30N 38°37' E 006°53'612.8
2017-Aug-16 16:00N 38°37' E 007°01'712.7
2017-Aug-16 15:25N 38°36' E 007°11'912.6
2017-Aug-16 14:44N 38°36' E 007°22'1417.0
2017-Aug-16 13:54N 38°35' E 007°40'1417.5
2017-Aug-16 13:07N 38°34' E 007°57'217.4
2017-Aug-16 13:00N 38°34' E 007°60'714.0
2017-Aug-16 12:30N 38°33' E 008°09'713.1
2017-Aug-16 12:00N 38°33' E 008°17'612.7
2017-Aug-16 11:30N 38°33' E 008°25'713.1
2017-Aug-16 10:59N 38°32' E 008°34'913.1
2017-Aug-16 10:20N 38°31' E 008°45'412.9
2017-Aug-16 10:00N 38°31' E 008°50'612.8
2017-Aug-16 09:30N 38°30' E 008°58'713.0
2017-Aug-16 09:00N 38°30' E 009°07'713.2
2017-Aug-16 08:30N 38°30' E 009°15'713.8
2017-Aug-16 08:00N 38°29' E 009°24'713.3
2017-Aug-16 07:30N 38°29' E 009°32'713.3
2017-Aug-16 07:00N 38°28' E 009°41'712.8
2017-Aug-16 06:30N 38°28' E 009°49'612.9
2017-Aug-16 06:00N 38°27' E 009°57'713.2
2017-Aug-16 05:30N 38°27' E 010°06'713.3
2017-Aug-16 05:00N 38°27' E 010°14'713.2
2017-Aug-16 04:30N 38°26' E 010°23'613.1
2017-Aug-16 04:00N 38°26' E 010°31'713.1
2017-Aug-16 03:30N 38°25' E 010°39'1513.0
2017-Aug-16 02:19N 38°24' E 010°59'513.1
2017-Aug-16 01:56N 38°24' E 011°05'613.2
2017-Aug-16 01:30N 38°24' E 011°12'713.3
2017-Aug-16 01:00N 38°23' E 011°21'1313.4
2017-Aug-15 23:59N 38°22' E 011°38'613.3
2017-Aug-15 23:30N 38°22' E 011°46'1113.1
2017-Aug-15 22:42N 38°21' E 011°60'1912.9
2017-Aug-15 21:12N 38°20' E 012°24'913.2
2017-Aug-15 20:33N 38°19' E 012°35'113.3
2017-Aug-15 20:29N 38°19' E 012°36'613.2
2017-Aug-15 20:00N 38°19' E 012°44'612.7
2017-Aug-15 19:30N 38°18' E 012°52'611.7
2017-Aug-15 19:00N 38°18' E 012°60'612.7
2017-Aug-15 18:30N 38°18' E 013°08'612.6
2017-Aug-15 18:00N 38°17' E 013°16'611.8
2017-Aug-15 17:30N 38°16' E 013°23'612.2
2017-Aug-15 17:00N 38°10' E 013°26'4 7.6
2017-Aug-15 16:30N 38°08' E 013°22'0 0.8
2017-Aug-15 15:58N 38°08' E 013°22'0 0.0
2017-Aug-15 15:28N 38°08' E 013°22'0 0.0
2017-Aug-15 14:58N 38°08' E 013°22'0 0.0
2017-Aug-15 14:22N 38°08' E 013°22'0 0.0
2017-Aug-15 13:58N 38°08' E 013°22'0 0.0
2017-Aug-15 13:28N 38°08' E 013°22'0 0.0
2017-Aug-15 12:58N 38°08' E 013°22'0 0.0
2017-Aug-15 12:28N 38°08' E 013°22'0 0.0
2017-Aug-15 11:58N 38°08' E 013°22'0 0.0
2017-Aug-15 11:25N 38°08' E 013°22'0 0.0
2017-Aug-15 10:55N 38°08' E 013°22'0 0.0
2017-Aug-15 10:25N 38°08' E 013°22'0 0.0
2017-Aug-15 09:55N 38°08' E 013°22'0 0.0
2017-Aug-15 09:25N 38°08' E 013°22'0 0.0
2017-Aug-15 08:58N 38°08' E 013°22'0 0.0
2017-Aug-15 08:25N 38°08' E 013°22'0 0.0
2017-Aug-15 07:58N 38°08' E 013°22'0 0.0
2017-Aug-15 07:28N 38°08' E 013°22'0 0.0
2017-Aug-15 06:58N 38°08' E 013°22'0 0.1
2017-Aug-15 06:31N 38°08' E 013°22'3 5.2
2017-Aug-15 06:01N 38°09' E 013°25'815.0
2017-Aug-15 05:31N 38°16' E 013°27'918.1
2017-Aug-15 05:00N 38°25' E 013°30'918.2
2017-Aug-15 04:30N 38°34' E 013°32'918.2
2017-Aug-15 04:00N 38°43' E 013°35'918.1
2017-Aug-15 03:30N 38°52' E 013°38'917.9
2017-Aug-15 03:00N 39°01' E 013°40'917.6
2017-Aug-15 02:30N 39°09' E 013°43'712.8
2017-Aug-15 02:00N 39°15' E 013°44'612.9
2017-Aug-15 01:30N 39°22' E 013°45'612.7
2017-Aug-15 01:00N 39°28' E 013°47'612.7
2017-Aug-15 00:30N 39°34' E 013°49'612.6
2017-Aug-15 00:00N 39°40' E 013°50'612.5
2017-Aug-14 23:30N 39°46' E 013°54'612.7
2017-Aug-14 23:00N 39°52' E 013°56'612.8
2017-Aug-14 22:30N 39°58' E 013°58'612.6
2017-Aug-14 22:00N 40°04' E 013°59'612.7
2017-Aug-14 21:30N 40°11' E 014°01'612.8
2017-Aug-14 21:00N 40°17' E 014°03'612.8
2017-Aug-14 20:31N 40°23' E 014°05'613.0
2017-Aug-14 20:00N 40°29' E 014°07'713.1
2017-Aug-14 19:30N 40°35' E 014°10'612.8
2017-Aug-14 19:00N 40°41' E 014°13'612.3
2017-Aug-14 18:30N 40°47' E 014°16'3 1.6
2017-Aug-14 16:42N 40°50' E 014°16'0 0.0
2017-Aug-14 16:30N 40°50' E 014°16'0 0.0
2017-Aug-14 10:47N 40°50' E 014°16'1 3.2
2017-Aug-14 10:31N 40°50' E 014°17'611.8
2017-Aug-14 10:00N 40°44' E 014°17'816.9
2017-Aug-14 09:30N 40°39' E 014°08'917.4
2017-Aug-14 09:00N 40°38' E 013°57'918.3
2017-Aug-14 08:30N 40°40' E 013°44'11219.9
2017-Aug-14 02:53N 41°29' E 011°31'1421.0
2017-Aug-14 02:14N 41°37' E 011°17'520.8
2017-Aug-14 02:00N 41°40' E 011°11'1020.7
2017-Aug-14 01:30N 41°45' E 010°60'  
Track history (hours):
 
Tides and Currents Weather Stations Pressure Air Temp Water Temp Dewpoint Dewpoint Depression Visibility Wind Speed Wind Dir Waves Ship Positions

Costa Fascinosa

Last reported at 2017-Aug-24 01:00 UTC. Time now 2017-Aug-24 01:10 UTC.
Position N 38°47' E 003°37'.

Length 291 m; draft 8.3 m.

Type: Passenger vessel. MMSI: 247313500.

Date/timePositionNaut miles runAvg speedWind from/ knotsBaromVisibWave heightAir tempDewpointWater temp
2017-Aug-24 01:00N 38°47' E 003°37'918.4
2017-Aug-24 00:30N 38°46' E 003°49'918.3
2017-Aug-24 00:00N 38°46' E 004°00'918.3
2017-Aug-23 23:30N 38°45' E 004°12'918.3
2017-Aug-23 23:00N 38°45' E 004°24'918.4
2017-Aug-23 22:30N 38°44' E 004°36'918.5
2017-Aug-23 22:00N 38°43' E 004°47'918.5
2017-Aug-23 21:30N 38°43' E 004°59'918.5
2017-Aug-23 21:00N 38°42' E 005°11'1118.6
2017-Aug-23 20:25N 38°42' E 005°25'1318.9
2017-Aug-23 19:42N 38°41' E 005°42'2718.8
2017-Aug-23 18:15N 38°39' E 006°17'418.5
2017-Aug-23 18:00N 38°39' E 006°23'1518.7
2017-Aug-23 17:13N 38°38' E 006°42'418.8
2017-Aug-23 17:00N 38°37' E 006°47'2414.6
2017-Aug-23 15:23N 38°36' E 007°17'713.3
2017-Aug-23 14:53N 38°36' E 007°26'812.6
2017-Aug-23 14:17N 38°35' E 007°35'2012.4
2017-Aug-23 12:38N 38°34' E 008°01'1512.3
2017-Aug-23 11:26N 38°33' E 008°20'612.8
2017-Aug-23 10:58N 38°32' E 008°28'8814.9
2017-Aug-23 05:03N 38°26' E 010°20'312.7
2017-Aug-23 04:48N 38°26' E 010°24'10212.6
2017-Aug-22 20:42N 38°20' E 012°34'212.1
2017-Aug-22 20:30N 38°19' E 012°37'612.2
2017-Aug-22 20:00N 38°19' E 012°45'612.0
2017-Aug-22 19:30N 38°19' E 012°52'612.0
2017-Aug-22 19:00N 38°18' E 012°60'611.9
2017-Aug-22 18:30N 38°18' E 013°07'611.7
2017-Aug-22 18:00N 38°17' E 013°15'611.5
2017-Aug-22 17:30N 38°17' E 013°22'611.1
2017-Aug-22 17:00N 38°12' E 013°25'5 9.6
2017-Aug-22 16:30N 38°07' E 013°23'1 2.5
2017-Aug-22 15:58N 38°08' E 013°22'0 0.0
2017-Aug-22 15:28N 38°08' E 013°22'0 0.0
2017-Aug-22 14:54N 38°08' E 013°22'0 0.0
2017-Aug-22 14:30N 38°08' E 013°22'0 0.0
2017-Aug-22 14:00N 38°08' E 013°22'0 0.0
2017-Aug-22 13:29N 38°08' E 013°22'0 0.0
2017-Aug-22 12:59N 38°08' E 013°22'0 0.0
2017-Aug-22 12:29N 38°08' E 013°22'0 0.0
2017-Aug-22 11:58N 38°08' E 013°22'0 0.0
2017-Aug-22 11:28N 38°08' E 013°22'0 0.0
2017-Aug-22 10:58N 38°08' E 013°22'0 0.0
2017-Aug-22 10:28N 38°08' E 013°22'0 0.0
2017-Aug-22 09:58N 38°08' E 013°22'0 0.0
2017-Aug-22 09:28N 38°08' E 013°22'0 0.0
2017-Aug-22 08:58N 38°08' E 013°22'0 0.0
2017-Aug-22 08:29N 38°08' E 013°22'0 0.0
2017-Aug-22 08:00N 38°08' E 013°22'0 0.0
2017-Aug-22 07:30N 38°08' E 013°22'0 0.0
2017-Aug-22 07:00N 38°08' E 013°22'0 0.1
2017-Aug-22 06:30N 38°08' E 013°22'3 5.1
2017-Aug-22 06:00N 38°09' E 013°25'917.8
2017-Aug-22 05:30N 38°18' E 013°28'918.5
2017-Aug-22 05:00N 38°27' E 013°30'918.5
2017-Aug-22 04:30N 38°36' E 013°33'918.4
2017-Aug-22 03:59N 38°45' E 013°36'11013.5
2017-Aug-21 19:48N 40°32' E 014°08'413.0
2017-Aug-21 19:31N 40°36' E 014°09'713.1
2017-Aug-21 19:00N 40°42' E 014°13'612.4
2017-Aug-21 18:30N 40°48' E 014°16'3 0.3
2017-Aug-21 10:57N 40°50' E 014°16'3 6.0
2017-Aug-21 10:28N 40°48' E 014°17'613.0
2017-Aug-21 10:00N 40°43' E 014°13'917.4
2017-Aug-21 09:30N 40°38' E 014°04'917.8
2017-Aug-21 09:00N 40°38' E 013°52'21519.1
2017-Aug-20 21:46N 42°32' E 009°48'621.4
2017-Aug-20 21:30N 42°38' E 009°46'1121.4
2017-Aug-20 21:00N 42°48' E 009°41'1020.9
2017-Aug-20 20:30N 42°58' E 009°36'1020.5
2017-Aug-20 20:00N 43°07' E 009°31'1020.6
2017-Aug-20 19:30N 43°16' E 009°24'1020.6
2017-Aug-20 19:00N 43°25' E 009°16'1020.2
2017-Aug-20 18:30N 43°34' E 009°09'1020.6
2017-Aug-20 18:00N 43°42' E 009°02'1020.6
2017-Aug-20 17:30N 43°51' E 008°55'1020.4
2017-Aug-20 17:00N 43°60' E 008°47'1020.2
2017-Aug-20 16:30N 44°09' E 008°40'1019.3
2017-Aug-20 16:00N 44°17' E 008°33'3 6.4
2017-Aug-20 15:31N 44°19' E 008°29'0 0.1
2017-Aug-20 14:58N 44°19' E 008°29'0 0.0
2017-Aug-20 14:25N 44°19' E 008°29'0 0.0
2017-Aug-20 14:00N 44°19' E 008°29'0 0.0
2017-Aug-20 13:29N 44°19' E 008°29'0 0.0
2017-Aug-20 13:00N 44°19' E 008°29'0 0.0
2017-Aug-20 12:28N 44°19' E 008°29'0 0.0
2017-Aug-20 11:58N 44°19' E 008°29'0 0.0
2017-Aug-20 11:28N 44°19' E 008°29'0 0.0
2017-Aug-20 10:58N 44°19' E 008°29'0 0.0
2017-Aug-20 10:28N 44°19' E 008°29'0 0.0
2017-Aug-20 09:58N 44°19' E 008°29'0 0.0
2017-Aug-20 09:31N 44°19' E 008°29'0 0.0
2017-Aug-20 09:01N 44°19' E 008°29'0 0.0
2017-Aug-20 08:31N 44°19' E 008°29'0 0.0
2017-Aug-20 08:00N 44°19' E 008°29'0 0.0
2017-Aug-20 07:30N 44°19' E 008°29'0 0.0
2017-Aug-20 06:56N 44°19' E 008°29'0 0.0
2017-Aug-20 06:29N 44°19' E 008°29'0 0.1
2017-Aug-20 06:00N 44°19' E 008°29'3 5.3
2017-Aug-20 05:31N 44°17' E 008°32'1019.4
2017-Aug-20 05:00N 44°08' E 008°27'1020.3
2017-Aug-20 04:30N 43°59' E 008°19'1120.2
2017-Aug-20 03:59N 43°50' E 008°12'919.6
2017-Aug-20 03:30N 43°44' E 008°03'1019.9
2017-Aug-20 03:00N 43°38' E 007°51'1020.0
2017-Aug-20 02:31N 43°32' E 007°40'1020.1
2017-Aug-20 02:01N 43°27' E 007°29'1020.4
2017-Aug-20 01:31N 43°21' E 007°17'1020.3
2017-Aug-20 01:00N 43°15' E 007°06'6319.9
2017-Aug-19 21:51N 42°42' E 005°53'1420.6
2017-Aug-19 21:12N 42°35' E 005°37'420.7
2017-Aug-19 21:00N 42°34' E 005°32'1020.6
2017-Aug-19 20:30N 42°29' E 005°19'1020.6
2017-Aug-19 20:01N 42°24' E 005°07'1020.5
2017-Aug-19 19:30N 42°19' E 004°55'1020.4
2017-Aug-19 19:00N 42°14' E 004°43'1121.0
2017-Aug-19 18:30N 42°09' E 004°30'1121.2
2017-Aug-19 18:00N 42°04' E 004°18'1121.1
2017-Aug-19 17:30N 41°59' E 004°05'1020.4
2017-Aug-19 17:00N 41°54' E 003°53'1019.5
2017-Aug-19 16:30N 41°49' E 003°42'1019.7
2017-Aug-19 16:00N 41°45' E 003°30'6619.7
2017-Aug-19 12:41N 41°17' E 002°11'211.4
2017-Aug-19 12:30N 41°19' E 002°10'2 3.8
2017-Aug-19 12:00N 41°21' E 002°10'0 0.0
2017-Aug-19 11:25N 41°21' E 002°10'0 0.0
2017-Aug-19 11:00N 41°21' E 002°10'0 0.0
2017-Aug-19 10:30N 41°21' E 002°10'0 0.0
2017-Aug-19 08:48N 41°21' E 002°10'0 0.0
2017-Aug-19 08:24N 41°21' E 002°10'0 0.0
2017-Aug-19 08:00N 41°21' E 002°10'0 0.0
2017-Aug-19 07:12N 41°21' E 002°10'0 0.0
2017-Aug-19 06:54N 41°21' E 002°10'0 0.0
2017-Aug-19 05:16N 41°21' E 002°10'3 4.9
2017-Aug-19 04:43N 41°18' E 002°10'510.3
2017-Aug-19 04:12N 41°13' E 002°11'211.7
2017-Aug-19 04:00N 41°11' E 002°11'611.7
2017-Aug-19 03:30N 41°05' E 002°11'510.1
2017-Aug-19 03:00N 40°60' E 002°11'4 8.7
2017-Aug-19 02:30N 40°56' E 002°12'611.9
2017-Aug-19 02:00N 40°50' E 002°12'612.0
2017-Aug-19 01:30N 40°44' E 002°12'611.8
2017-Aug-19 01:00N 40°38' E 002°13'611.7
2017-Aug-19 00:30N 40°32' E 002°14'611.5
2017-Aug-19 00:00N 40°26' E 002°12'611.7
2017-Aug-18 23:30N 40°21' E 002°13'611.8
2017-Aug-18 23:00N 40°15' E 002°14'612.0
2017-Aug-18 22:30N 40°09' E 002°14'611.8
2017-Aug-18 22:00N 40°03' E 002°14'611.6
2017-Aug-18 21:30N 39°57' E 002°14'611.4
2017-Aug-18 21:00N 39°51' E 002°14'611.4
2017-Aug-18 20:29N 39°45' E 002°14'611.6
2017-Aug-18 19:59N 39°40' E 002°14'511.5
2017-Aug-18 19:30N 39°34' E 002°14'511.0
2017-Aug-18 19:00N 39°30' E 002°18'611.9
2017-Aug-18 18:30N 39°26' E 002°25'611.5
2017-Aug-18 18:00N 39°25' E 002°32'611.1
2017-Aug-18 17:30N 39°29' E 002°37'4 8.5
2017-Aug-18 17:00N 39°33' E 002°38'0 0.5
2017-Aug-18 16:29N 39°33' E 002°38'0 0.0
2017-Aug-18 15:59N 39°33' E 002°38'0 0.0
2017-Aug-18 15:29N 39°33' E 002°38'0 0.0
2017-Aug-18 14:59N 39°33' E 002°38'0 0.0
2017-Aug-18 14:29N 39°33' E 002°38'0 0.0
2017-Aug-18 13:29N 39°33' E 002°38'0 0.0
2017-Aug-18 12:59N 39°33' E 002°38'0 0.0
2017-Aug-18 12:29N 39°33' E 002°38'0 0.0
2017-Aug-18 11:59N 39°33' E 002°38'0 0.0
2017-Aug-18 11:26N 39°33' E 002°38'0 0.0
2017-Aug-18 10:59N 39°33' E 002°38'0 0.0
2017-Aug-18 10:29N 39°33' E 002°38'0 0.0
2017-Aug-18 09:59N 39°33' E 002°38'0 0.0
2017-Aug-18 09:29N 39°33' E 002°38'0 0.0
2017-Aug-18 08:59N 39°33' E 002°38'0 0.0
2017-Aug-18 08:29N 39°33' E 002°38'0 0.0
2017-Aug-18 07:59N 39°33' E 002°38'0 0.0
2017-Aug-18 07:26N 39°33' E 002°38'0 0.0
2017-Aug-18 06:59N 39°33' E 002°38'2 3.3
2017-Aug-18 06:30N 39°32' E 002°39'510.5
2017-Aug-18 06:00N 39°27' E 002°35'611.3
2017-Aug-18 05:30N 39°22' E 002°31'611.5
2017-Aug-18 05:00N 39°17' E 002°27'5 9.7
2017-Aug-18 04:30N 39°13' E 002°25'510.8
2017-Aug-18 04:00N 39°10' E 002°19'611.3
2017-Aug-18 03:30N 39°07' E 002°13'611.2
2017-Aug-18 03:00N 39°05' E 002°07'611.2
2017-Aug-18 02:30N 39°02' E 002°00'611.4
2017-Aug-18 02:00N 38°59' E 001°54'611.3
2017-Aug-18 01:30N 38°57' E 001°47'611.2
2017-Aug-18 01:00N 38°56' E 001°40'611.3
2017-Aug-18 00:30N 38°54' E 001°33'5 9.9
2017-Aug-18 00:00N 38°54' E 001°27'0 0.7
2017-Aug-17 23:30N 38°54' E 001°27'0 0.0
2017-Aug-17 23:00N 38°54' E 001°27'0 0.0
2017-Aug-17 22:27N 38°54' E 001°27'0 0.0
2017-Aug-17 21:57N 38°54' E 001°27'0 0.0
2017-Aug-17 21:27N 38°54' E 001°27'0 0.0
2017-Aug-17 21:00N 38°54' E 001°27'0 0.0
2017-Aug-17 20:30N 38°54' E 001°27'0 0.0
2017-Aug-17 20:00N 38°54' E 001°27'0 0.0
2017-Aug-17 19:27N 38°54' E 001°27'0 0.0
2017-Aug-17 19:00N 38°54' E 001°27'0 0.0
2017-Aug-17 18:27N 38°54' E 001°27'0 0.0
2017-Aug-17 17:57N 38°54' E 001°27'0 0.0
2017-Aug-17 17:30N 38°54' E 001°27'0 0.0
2017-Aug-17 17:00N 38°54' E 001°27'0 0.0
2017-Aug-17 16:30N 38°54' E 001°27'0 0.0
2017-Aug-17 16:00N 38°54' E 001°27'0 0.0
2017-Aug-17 15:26N 38°54' E 001°27'0 0.0
2017-Aug-17 14:53N 38°54' E 001°27'0 0.0
2017-Aug-17 14:17N 38°54' E 001°27'0 0.0
2017-Aug-17 13:59N 38°54' E 001°27'0 0.0
2017-Aug-17 13:29N 38°54' E 001°27'0 0.0
2017-Aug-17 12:56N 38°54' E 001°27'0 0.0
2017-Aug-17 12:29N 38°54' E 001°27'0 0.0
2017-Aug-17 11:59N 38°54' E 001°27'0 0.0
2017-Aug-17 11:29N 38°54' E 001°27'0 0.0
2017-Aug-17 10:58N 38°54' E 001°27'0 0.0
2017-Aug-17 10:28N 38°54' E 001°27'0 0.0
2017-Aug-17 09:58N 38°54' E 001°27'0 0.0
2017-Aug-17 09:28N 38°54' E 001°27'0 0.0
2017-Aug-17 08:58N 38°54' E 001°27'0 0.0
2017-Aug-17 08:22N 38°54' E 001°27'0 0.0
2017-Aug-17 07:58N 38°54' E 001°27'0 0.0
2017-Aug-17 07:28N 38°54' E 001°27'0 0.0
2017-Aug-17 06:58N 38°54' E 001°27'1 2.9
2017-Aug-17 06:30N 38°54' E 001°29'918.0
2017-Aug-17 06:00N 38°53' E 001°40'917.5
2017-Aug-17 05:30N 38°52' E 001°51'612.8
2017-Aug-17 05:00N 38°52' E 001°59'712.8
2017-Aug-17 04:30N 38°51' E 002°08'816.7
2017-Aug-17 04:00N 38°51' E 002°19'1019.4
2017-Aug-17 03:30N 38°50' E 002°31'1019.4
2017-Aug-17 03:00N 38°50' E 002°43'1019.1
2017-Aug-17 02:31N 38°49' E 002°55'1018.9
2017-Aug-17 02:00N 38°49' E 003°08'918.7
2017-Aug-17 01:31N 38°48' E 003°19'918.7
2017-Aug-17 01:00N 38°47' E 003°31'918.6
2017-Aug-17 00:30N 38°47' E 003°43'918.5
2017-Aug-17 00:00N 38°46' E 003°55'918.4
2017-Aug-16 23:30N 38°46' E 004°07'918.4
2017-Aug-16 23:00N 38°45' E 004°19'918.5
2017-Aug-16 22:30N 38°44' E 004°31'918.5
2017-Aug-16 22:00N 38°44' E 004°43'918.4
2017-Aug-16 21:31N 38°43' E 004°54'1218.5
2017-Aug-16 20:51N 38°42' E 005°10'1118.5
2017-Aug-16 20:16N 38°41' E 005°24'518.6
2017-Aug-16 20:00N 38°41' E 005°30'1018.6
2017-Aug-16 19:30N 38°41' E 005°42'918.9
2017-Aug-16 19:00N 38°40' E 005°54'919.1
2017-Aug-16 18:31N 38°39' E 006°06'918.8
2017-Aug-16 18:01N 38°39' E 006°18'918.6
2017-Aug-16 17:31N 38°38' E 006°30'1818.2
2017-Aug-16 16:31N 38°37' E 006°53'015.3
2017-Aug-16 16:30N 38°37' E 006°53'612.8
2017-Aug-16 16:00N 38°37' E 007°01'712.7
2017-Aug-16 15:25N 38°36' E 007°11'912.6
2017-Aug-16 14:44N 38°36' E 007°22'1417.0
2017-Aug-16 13:54N 38°35' E 007°40'1417.5
2017-Aug-16 13:07N 38°34' E 007°57'217.4
2017-Aug-16 13:00N 38°34' E 007°60'714.0
2017-Aug-16 12:30N 38°33' E 008°09'713.1
2017-Aug-16 12:00N 38°33' E 008°17'612.7
2017-Aug-16 11:30N 38°33' E 008°25'713.1
2017-Aug-16 10:59N 38°32' E 008°34'913.1
2017-Aug-16 10:20N 38°31' E 008°45'412.9
2017-Aug-16 10:00N 38°31' E 008°50'612.8
2017-Aug-16 09:30N 38°30' E 008°58'713.0
2017-Aug-16 09:00N 38°30' E 009°07'713.2
2017-Aug-16 08:30N 38°30' E 009°15'713.8
2017-Aug-16 08:00N 38°29' E 009°24'713.3
2017-Aug-16 07:30N 38°29' E 009°32'713.3
2017-Aug-16 07:00N 38°28' E 009°41'712.8
2017-Aug-16 06:30N 38°28' E 009°49'612.9
2017-Aug-16 06:00N 38°27' E 009°57'713.2
2017-Aug-16 05:30N 38°27' E 010°06'713.3
2017-Aug-16 05:00N 38°27' E 010°14'713.2
2017-Aug-16 04:30N 38°26' E 010°23'613.1
2017-Aug-16 04:00N 38°26' E 010°31'713.1
2017-Aug-16 03:30N 38°25' E 010°39'1513.0
2017-Aug-16 02:19N 38°24' E 010°59'513.1
2017-Aug-16 01:56N 38°24' E 011°05'613.2
2017-Aug-16 01:30N 38°24' E 011°12'713.3
2017-Aug-16 01:00N 38°23' E 011°21'1313.4
2017-Aug-15 23:59N 38°22' E 011°38'613.3
2017-Aug-15 23:30N 38°22' E 011°46'1113.1
2017-Aug-15 22:42N 38°21' E 011°60'1912.9
2017-Aug-15 21:12N 38°20' E 012°24'913.2
2017-Aug-15 20:33N 38°19' E 012°35'113.3
2017-Aug-15 20:29N 38°19' E 012°36'613.2
2017-Aug-15 20:00N 38°19' E 012°44'612.7
2017-Aug-15 19:30N 38°18' E 012°52'611.7
2017-Aug-15 19:00N 38°18' E 012°60'612.7
2017-Aug-15 18:30N 38°18' E 013°08'612.6
2017-Aug-15 18:00N 38°17' E 013°16'611.8
2017-Aug-15 17:30N 38°16' E 013°23'612.2
2017-Aug-15 17:00N 38°10' E 013°26'4 7.6
2017-Aug-15 16:30N 38°08' E 013°22'0 0.8
2017-Aug-15 15:58N 38°08' E 013°22'0 0.0
2017-Aug-15 15:28N 38°08' E 013°22'0 0.0
2017-Aug-15 14:58N 38°08' E 013°22'0 0.0
2017-Aug-15 14:22N 38°08' E 013°22'0 0.0
2017-Aug-15 13:58N 38°08' E 013°22'0 0.0
2017-Aug-15 13:28N 38°08' E 013°22'0 0.0
2017-Aug-15 12:58N 38°08' E 013°22'0 0.0
2017-Aug-15 12:28N 38°08' E 013°22'0 0.0
2017-Aug-15 11:58N 38°08' E 013°22'0 0.0
2017-Aug-15 11:25N 38°08' E 013°22'0 0.0
2017-Aug-15 10:55N 38°08' E 013°22'0 0.0
2017-Aug-15 10:25N 38°08' E 013°22'0 0.0
2017-Aug-15 09:55N 38°08' E 013°22'0 0.0
2017-Aug-15 09:25N 38°08' E 013°22'0 0.0
2017-Aug-15 08:58N 38°08' E 013°22'0 0.0
2017-Aug-15 08:25N 38°08' E 013°22'0 0.0
2017-Aug-15 07:58N 38°08' E 013°22'0 0.0
2017-Aug-15 07:28N 38°08' E 013°22'0 0.0
2017-Aug-15 06:58N 38°08' E 013°22'0 0.1
2017-Aug-15 06:31N 38°08' E 013°22'3 5.2
2017-Aug-15 06:01N 38°09' E 013°25'815.0
2017-Aug-15 05:31N 38°16' E 013°27'918.1
2017-Aug-15 05:00N 38°25' E 013°30'918.2
2017-Aug-15 04:30N 38°34' E 013°32'918.2
2017-Aug-15 04:00N 38°43' E 013°35'918.1
2017-Aug-15 03:30N 38°52' E 013°38'917.9
2017-Aug-15 03:00N 39°01' E 013°40'917.6
2017-Aug-15 02:30N 39°09' E 013°43'712.8
2017-Aug-15 02:00N 39°15' E 013°44'612.9
2017-Aug-15 01:30N 39°22' E 013°45'612.7
2017-Aug-15 01:00N 39°28' E 013°47'612.7
2017-Aug-15 00:30N 39°34' E 013°49'612.6
2017-Aug-15 00:00N 39°40' E 013°50'612.5
2017-Aug-14 23:30N 39°46' E 013°54'612.7
2017-Aug-14 23:00N 39°52' E 013°56'612.8
2017-Aug-14 22:30N 39°58' E 013°58'612.6
2017-Aug-14 22:00N 40°04' E 013°59'612.7
2017-Aug-14 21:30N 40°11' E 014°01'612.8
2017-Aug-14 21:00N 40°17' E 014°03'612.8
2017-Aug-14 20:31N 40°23' E 014°05'613.0
2017-Aug-14 20:00N 40°29' E 014°07'713.1
2017-Aug-14 19:30N 40°35' E 014°10'612.8
2017-Aug-14 19:00N 40°41' E 014°13'612.3
2017-Aug-14 18:30N 40°47' E 014°16'3 1.6
2017-Aug-14 16:42N 40°50' E 014°16'0 0.0
2017-Aug-14 16:30N 40°50' E 014°16'0 0.0
2017-Aug-14 10:47N 40°50' E 014°16'1 3.2
2017-Aug-14 10:31N 40°50' E 014°17'611.8
2017-Aug-14 10:00N 40°44' E 014°17'816.9
2017-Aug-14 09:30N 40°39' E 014°08'917.4
2017-Aug-14 09:00N 40°38' E 013°57'918.3
2017-Aug-14 08:30N 40°40' E 013°44'11219.9
2017-Aug-14 02:53N 41°29' E 011°31'1421.0
2017-Aug-14 02:14N 41°37' E 011°17'520.8
2017-Aug-14 02:00N 41°40' E 011°11'1020.7
2017-Aug-14 01:30N 41°45' E 010°60'  

Dump ship's entire track history